Time;durP1;ratioP1;P1;durP2;ratioP2;P2;SDS_P1;SDS_P2;PMS_P1;PMS_P2;Temp;Humidity;BMP_temperature;BMP_pressure;BME280_temperature;BME280_humidity;BME280_pressure;Samples;Min_cycle;Max_cycle;Signal;HPM_P1;HPM_P2
2021/07/13 00:01:29;;;;;;;13.73;7.35;;;20.70;99.90;;;;;;5019349;28;20061;-72
2021/07/13 00:03:55;;;;;;;13.00;7.65;;;20.60;99.90;;;;;;5018050;28;20043;-74
2021/07/13 00:06:22;;;;;;;14.15;7.78;;;20.60;99.90;;;;;;5016879;28;20053;-73
2021/07/13 00:08:51;;;;;;;11.65;6.68;;;20.70;99.90;;;;;;5017412;28;20029;-73
2021/07/13 00:11:17;;;;;;;13.52;7.13;;;20.70;99.90;;;;;;5016918;28;20033;-72
2021/07/13 00:13:43;;;;;;;13.38;7.55;;;20.60;99.90;;;;;;5014353;28;20056;-72
2021/07/13 00:16:10;;;;;;;13.88;8.68;;;20.70;99.90;;;;;;5017390;28;20093;-73
2021/07/13 00:18:37;;;;;;;13.25;7.82;;;20.70;99.90;;;;;;5017679;28;20038;-72
2021/07/13 00:21:03;;;;;;;10.30;6.95;;;20.60;99.90;;;;;;5017455;28;20029;-72
2021/07/13 00:23:29;;;;;;;11.65;7.25;;;20.60;99.90;;;;;;5011220;28;20049;-73
2021/07/13 00:25:55;;;;;;;10.57;6.75;;;20.60;99.90;;;;;;5015130;28;20460;-73
2021/07/13 00:28:21;;;;;;;10.80;7.22;;;20.60;99.90;;;;;;5015750;28;20037;-73
2021/07/13 00:30:46;;;;;;;11.10;8.23;;;20.60;99.90;;;;;;5017199;28;20064;-73
2021/07/13 00:33:14;;;;;;;9.93;6.75;;;20.60;99.90;;;;;;5016444;28;20121;-73
2021/07/13 00:35:39;;;;;;;11.27;7.43;;;20.50;99.90;;;;;;5013251;28;20030;-73
2021/07/13 00:38:05;;;;;;;13.63;8.18;;;20.50;99.90;;;;;;5020579;28;20088;-72
2021/07/13 00:40:31;;;;;;;14.25;7.43;;;20.50;99.90;;;;;;5035664;28;20030;-73
2021/07/13 00:42:57;;;;;;;11.55;7.15;;;20.50;99.90;;;;;;5014781;28;20034;-74
2021/07/13 00:45:24;;;;;;;13.82;7.63;;;20.50;99.90;;;;;;5017723;28;20030;-72
2021/07/13 00:47:51;;;;;;;12.38;8.20;;;20.40;99.90;;;;;;5016146;28;20034;-73
2021/07/13 00:50:19;;;;;;;14.43;9.25;;;20.50;99.90;;;;;;5014419;28;20066;-73
2021/07/13 00:52:45;;;;;;;18.52;10.60;;;20.40;99.90;;;;;;5016080;28;20042;-72
2021/07/13 00:55:12;;;;;;;15.82;9.70;;;20.40;99.90;;;;;;5017395;28;20061;-72
2021/07/13 00:57:39;;;;;;;16.50;9.07;;;20.40;99.90;;;;;;5017039;28;20049;-72
2021/07/13 01:00:10;;;;;;;18.35;8.95;;;20.40;99.90;;;;;;5015842;28;20018;-73
2021/07/13 01:02:36;;;;;;;20.17;9.05;;;20.40;99.90;;;;;;5020467;28;20038;-73
2021/07/13 01:05:08;;;;;;;13.95;7.80;;;20.40;99.90;;;;;;5012953;28;20028;-71
2021/07/13 01:07:49;;;;;;;15.32;8.38;;;20.40;99.90;;;;;;5011740;28;20085;-71
2021/07/13 01:10:30;;;;;;;13.90;8.38;;;20.30;99.90;;;;;;5016273;28;20026;-72
2021/07/13 01:13:17;;;;;;;17.40;9.90;;;20.40;99.90;;;;;;5012366;28;20440;-71
2021/07/13 01:15:50;;;;;;;17.77;9.05;;;20.30;99.90;;;;;;5016498;28;20037;-72
2021/07/13 01:18:24;;;;;;;15.85;8.00;;;20.30;99.90;;;;;;5015733;28;20018;-70
2021/07/13 01:21:19;;;;;;;16.23;8.80;;;20.40;99.90;;;;;;5016582;28;20045;-71
2021/07/13 01:24:09;;;;;;;17.00;9.73;;;20.30;99.90;;;;;;5015188;28;20426;-71
2021/07/13 01:26:48;;;;;;;15.00;9.02;;;20.30;99.90;;;;;;5019180;28;20164;-72
2021/07/13 01:29:16;;;;;;;15.52;8.50;;;20.30;99.90;;;;;;5018440;28;20030;-73
2021/07/13 01:31:45;;;;;;;11.82;8.00;;;20.30;99.90;;;;;;5016670;28;20054;-73
2021/07/13 01:34:18;;;;;;;11.60;8.20;;;20.30;99.90;;;;;;5016698;28;20030;-71
2021/07/13 01:36:48;;;;;;;14.88;9.18;;;20.30;99.90;;;;;;5013311;28;20030;-72
2021/07/13 01:39:16;;;;;;;14.13;7.38;;;20.30;99.90;;;;;;5018329;28;20029;-71
2021/07/13 01:41:45;;;;;;;25.80;9.98;;;20.30;99.90;;;;;;5014889;28;20026;-71
2021/07/13 01:44:11;;;;;;;20.27;8.75;;;20.30;99.90;;;;;;5018905;28;20571;-71
2021/07/13 01:46:38;;;;;;;12.15;8.18;;;20.30;99.90;;;;;;5019980;28;20029;-70
2021/07/13 01:49:05;;;;;;;18.52;7.97;;;20.30;99.90;;;;;;5018871;28;20054;-72
2021/07/13 01:51:32;;;;;;;16.20;8.68;;;20.30;99.90;;;;;;5015025;28;20033;-72
2021/07/13 01:54:07;;;;;;;24.25;8.27;;;20.20;99.90;;;;;;5019852;28;20029;-73
2021/07/13 01:56:35;;;;;;;13.80;8.70;;;20.20;99.90;;;;;;5021116;28;20034;-72
2021/07/13 01:59:02;;;;;;;12.40;7.88;;;20.20;99.90;;;;;;5020293;28;20040;-72
2021/07/13 02:01:30;;;;;;;13.15;8.98;;;20.20;99.90;;;;;;5021223;28;20026;-72
2021/07/13 02:03:57;;;;;;;10.32;7.57;;;20.20;99.90;;;;;;5016492;28;20065;-71
2021/07/13 02:06:25;;;;;;;12.88;8.68;;;20.20;99.90;;;;;;5019411;28;20060;-72
2021/07/13 02:08:53;;;;;;;15.20;9.02;;;20.10;99.90;;;;;;5021020;28;20549;-69
2021/07/13 02:11:20;;;;;;;15.02;9.02;;;20.10;99.90;;;;;;5014209;28;20418;-73
2021/07/13 02:13:46;;;;;;;13.77;8.23;;;20.20;99.90;;;;;;5019543;28;20532;-70
2021/07/13 02:16:11;;;;;;;16.15;9.25;;;20.20;99.90;;;;;;5019328;28;20019;-68
2021/07/13 02:18:37;;;;;;;13.68;8.68;;;20.10;99.90;;;;;;5017787;28;20026;-69
2021/07/13 02:21:14;;;;;;;13.38;8.48;;;20.10;99.90;;;;;;5020504;28;20041;-70
2021/07/13 02:23:40;;;;;;;13.32;8.25;;;20.20;99.90;;;;;;5018867;28;20018;-72
2021/07/13 02:26:06;;;;;;;15.70;8.63;;;20.20;99.90;;;;;;5019418;28;20330;-71
2021/07/13 02:28:45;;;;;;;12.65;8.10;;;20.20;99.90;;;;;;5018587;28;20030;-72
2021/07/13 02:31:27;;;;;;;15.93;9.60;;;20.10;99.90;;;;;;5020040;28;20021;-72
2021/07/13 02:34:04;;;;;;;16.63;9.48;;;20.10;99.90;;;;;;5021140;28;20038;-72
2021/07/13 02:36:33;;;;;;;14.68;8.80;;;20.20;99.90;;;;;;5017569;28;20019;-73
2021/07/13 02:39:01;;;;;;;15.90;8.68;;;20.10;99.90;;;;;;5020034;28;20029;-71
2021/07/13 02:41:28;;;;;;;13.48;8.75;;;20.10;99.90;;;;;;5015951;28;20038;-71
2021/07/13 02:43:56;;;;;;;18.77;9.00;;;20.10;99.90;;;;;;5016322;28;20041;-70
2021/07/13 02:46:23;;;;;;;14.05;9.07;;;20.10;99.90;;;;;;5018443;28;20077;-72
2021/07/13 02:48:51;;;;;;;13.75;8.88;;;20.10;99.90;;;;;;5019058;28;20037;-71
2021/07/13 02:51:23;;;;;;;12.90;7.22;;;20.10;99.90;;;;;;5019170;28;20029;-70
2021/07/13 02:53:51;;;;;;;13.43;8.00;;;20.10;99.90;;;;;;5018109;28;20112;-71
2021/07/13 02:56:19;;;;;;;12.88;8.40;;;20.10;99.90;;;;;;5019806;28;20018;-71
2021/07/13 02:58:44;;;;;;;13.82;8.43;;;20.10;99.90;;;;;;5016868;28;20038;-69
2021/07/13 03:01:11;;;;;;;16.55;9.20;;;20.10;99.90;;;;;;5017517;28;20034;-71
2021/07/13 03:03:41;;;;;;;20.02;9.48;;;20.10;99.90;;;;;;5020994;28;20022;-71
2021/07/13 03:06:07;;;;;;;11.43;8.50;;;20.10;99.90;;;;;;5018712;28;20029;-72
2021/07/13 03:08:34;;;;;;;14.68;9.55;;;20.10;99.90;;;;;;5015254;28;20037;-70
2021/07/13 03:11:02;;;;;;;12.52;8.25;;;20.10;99.90;;;;;;5019701;28;20523;-71
2021/07/13 03:13:30;;;;;;;17.35;9.00;;;20.20;99.90;;;;;;5016829;28;20045;-70
2021/07/13 03:15:56;;;;;;;23.65;9.60;;;20.20;99.90;;;;;;5017634;28;20087;-70
2021/07/13 03:18:22;;;;;;;13.88;8.73;;;20.10;99.90;;;;;;5017529;28;20465;-71
2021/07/13 03:20:52;;;;;;;13.73;8.38;;;20.10;99.90;;;;;;5018875;28;20081;-70
2021/07/13 03:23:19;;;;;;;17.45;9.40;;;20.20;99.90;;;;;;5016501;28;20109;-70
2021/07/13 03:25:46;;;;;;;15.15;9.27;;;20.10;99.90;;;;;;5018625;28;20058;-70
2021/07/13 03:28:13;;;;;;;17.10;9.45;;;20.10;99.90;;;;;;5017003;28;20484;-73
2021/07/13 03:30:40;;;;;;;22.38;10.00;;;20.10;99.90;;;;;;5018870;28;20026;-70
2021/07/13 03:33:08;;;;;;;26.55;8.60;;;20.10;99.90;;;;;;5016461;28;20049;-72
2021/07/13 03:35:34;;;;;;;16.38;9.32;;;20.10;99.90;;;;;;5017395;28;20469;-70
2021/07/13 03:38:01;;;;;;;26.85;8.85;;;20.10;99.90;;;;;;5019804;28;20068;-70
2021/07/13 03:40:28;;;;;;;14.60;8.93;;;20.10;99.90;;;;;;5018006;28;20061;-73
2021/07/13 03:42:55;;;;;;;14.98;9.07;;;20.10;99.90;;;;;;5017016;28;20033;-72
2021/07/13 03:45:22;;;;;;;12.18;8.02;;;20.10;99.90;;;;;;5034886;28;20526;-71
2021/07/13 03:47:50;;;;;;;16.13;9.35;;;20.10;99.90;;;;;;5014480;28;20022;-72
2021/07/13 03:50:18;;;;;;;15.88;9.60;;;20.00;99.90;;;;;;5019327;28;20113;-73
2021/07/13 03:52:44;;;;;;;15.88;8.77;;;20.00;99.90;;;;;;5022712;28;20049;-71
2021/07/13 03:55:11;;;;;;;18.75;10.30;;;20.10;99.90;;;;;;5017118;28;20056;-72
2021/07/13 03:57:38;;;;;;;13.07;8.50;;;20.10;99.90;;;;;;5014247;28;20014;-70
2021/07/13 04:00:11;;;;;;;14.20;8.75;;;20.00;99.90;;;;;;5018841;28;20022;-72
2021/07/13 04:02:36;;;;;;;12.77;8.77;;;20.00;99.90;;;;;;5018663;28;20026;-72
2021/07/13 04:05:04;;;;;;;16.88;9.50;;;20.10;99.90;;;;;;5016037;28;20032;-72
2021/07/13 04:07:29;;;;;;;15.77;10.00;;;20.00;99.90;;;;;;5019059;28;20028;-72
2021/07/13 04:09:55;;;;;;;14.70;8.40;;;20.10;99.90;;;;;;5017257;28;20029;-72
2021/07/13 04:12:21;;;;;;;22.17;8.77;;;20.10;99.90;;;;;;5019314;28;20042;-72
2021/07/13 04:14:46;;;;;;;15.82;9.77;;;20.10;99.90;;;;;;5016370;28;20050;-71
2021/07/13 04:17:12;;;;;;;14.60;9.07;;;20.20;99.90;;;;;;5018403;28;20033;-72
2021/07/13 04:19:37;;;;;;;13.30;8.52;;;20.10;99.90;;;;;;5016219;28;20045;-71
2021/07/13 04:22:03;;;;;;;15.63;9.43;;;20.20;99.90;;;;;;5016031;28;20030;-71
2021/07/13 04:24:29;;;;;;;14.88;9.57;;;20.10;99.90;;;;;;5019242;28;20022;-70
2021/07/13 04:26:54;;;;;;;15.73;9.35;;;20.10;99.90;;;;;;5018554;28;20030;-72
2021/07/13 04:29:20;;;;;;;17.33;10.20;;;20.10;99.90;;;;;;5015555;28;20098;-72
2021/07/13 04:31:46;;;;;;;20.48;9.32;;;20.20;99.90;;;;;;5019031;28;20028;-71
2021/07/13 04:34:11;;;;;;;15.10;9.60;;;20.20;99.90;;;;;;5016850;28;20037;-70
2021/07/13 04:36:38;;;;;;;16.33;9.13;;;20.20;99.90;;;;;;5018304;28;20025;-72
2021/07/13 04:39:08;;;;;;;15.95;10.40;;;20.20;99.90;;;;;;5019101;28;20109;-70
2021/07/13 04:41:34;;;;;;;21.00;10.55;;;20.30;99.90;;;;;;5015401;28;20049;-70
2021/07/13 04:44:00;;;;;;;14.18;8.75;;;20.30;99.90;;;;;;5014757;28;20029;-73
2021/07/13 04:46:27;;;;;;;15.23;8.65;;;20.30;99.90;;;;;;5015043;28;20113;-72
2021/07/13 04:48:54;;;;;;;12.50;8.85;;;20.40;99.90;;;;;;5018115;28;20018;-71
2021/07/13 04:51:22;;;;;;;17.95;9.32;;;20.40;99.90;;;;;;5019742;28;20051;-72
2021/07/13 04:53:47;;;;;;;17.65;10.52;;;20.40;99.90;;;;;;5018147;28;20041;-71
2021/07/13 04:56:14;;;;;;;16.02;9.57;;;20.40;99.90;;;;;;5017967;28;20030;-74
2021/07/13 04:58:39;;;;;;;15.02;9.75;;;20.40;99.90;;;;;;5016076;28;20488;-72
2021/07/13 05:01:05;;;;;;;14.52;10.05;;;20.50;99.90;;;;;;5018383;28;20022;-70
2021/07/13 05:03:30;;;;;;;19.63;9.55;;;20.50;99.90;;;;;;5016847;28;20026;-72
2021/07/13 05:05:56;;;;;;;27.05;10.85;;;20.50;99.90;;;;;;5017404;28;20117;-69
2021/07/13 05:08:22;;;;;;;13.80;9.13;;;20.60;99.90;;;;;;5017317;28;20026;-69
2021/07/13 05:10:49;;;;;;;17.92;9.77;;;20.60;99.90;;;;;;5020182;28;20018;-72
2021/07/13 05:13:15;;;;;;;16.17;9.48;;;20.70;99.90;;;;;;5015966;28;20132;-72
2021/07/13 05:15:41;;;;;;;15.50;9.73;;;20.70;99.90;;;;;;5017586;28;20034;-72
2021/07/13 05:18:11;;;;;;;13.25;8.20;;;20.80;99.90;;;;;;5016213;28;20116;-74
2021/07/13 05:20:43;;;;;;;19.17;10.68;;;20.80;99.90;;;;;;5030825;28;20030;-73
2021/07/13 05:23:10;;;;;;;17.33;10.07;;;20.90;99.90;;;;;;5017904;28;20029;-70
2021/07/13 05:25:39;;;;;;;12.88;9.07;;;20.90;99.90;;;;;;5013566;28;20045;-74
2021/07/13 05:28:10;;;;;;;14.90;8.30;;;21.00;99.90;;;;;;5022099;28;20022;-74
2021/07/13 05:30:39;;;;;;;13.35;8.82;;;21.00;99.90;;;;;;5035022;28;20022;-71
2021/07/13 05:33:04;;;;;;;16.08;9.30;;;20.90;99.90;;;;;;5035836;28;20933;-70
2021/07/13 05:35:30;;;;;;;15.20;8.25;;;21.00;99.90;;;;;;5022382;28;20014;-73
2021/07/13 05:37:55;;;;;;;11.98;8.30;;;21.00;99.90;;;;;;5016845;28;20065;-73
2021/07/13 05:40:21;;;;;;;15.15;8.65;;;21.10;99.90;;;;;;5020486;28;20022;-71
2021/07/13 05:42:47;;;;;;;15.13;8.32;;;21.10;99.90;;;;;;5019046;28;20714;-71
2021/07/13 05:45:13;;;;;;;15.32;9.13;;;21.10;99.90;;;;;;5021875;28;20038;-72
2021/07/13 05:47:49;;;;;;;16.65;9.35;;;21.10;99.90;;;;;;5022775;28;20108;-72
2021/07/13 05:50:15;;;;;;;14.63;9.20;;;21.20;99.90;;;;;;5020936;28;20431;-73
2021/07/13 05:52:41;;;;;;;15.73;9.20;;;21.10;99.90;;;;;;5017696;28;20041;-73
2021/07/13 05:55:07;;;;;;;19.60;8.75;;;21.10;99.90;;;;;;5021449;28;20053;-73
2021/07/13 05:57:34;;;;;;;16.58;9.95;;;21.20;99.90;;;;;;5020230;28;20104;-73
2021/07/13 06:00:00;;;;;;;16.33;10.15;;;21.20;99.90;;;;;;5020207;28;20022;-73
2021/07/13 06:02:26;;;;;;;25.65;8.48;;;21.20;99.90;;;;;;5018297;28;20034;-73
2021/07/13 06:04:52;;;;;;;14.57;9.05;;;21.30;99.90;;;;;;5020992;28;20537;-73
2021/07/13 06:07:17;;;;;;;14.70;8.77;;;21.30;99.90;;;;;;5018825;28;20046;-72
2021/07/13 06:09:43;;;;;;;15.63;9.23;;;21.40;99.90;;;;;;5021623;28;20086;-72
2021/07/13 06:12:10;;;;;;;17.13;9.13;;;21.40;99.90;;;;;;5021325;28;20053;-73
2021/07/13 06:14:40;;;;;;;18.48;9.77;;;21.40;99.90;;;;;;5019712;28;20027;-74
2021/07/13 06:17:07;;;;;;;13.05;8.13;;;21.40;99.90;;;;;;5017204;28;20470;-74
2021/07/13 06:19:34;;;;;;;13.40;9.07;;;21.50;99.90;;;;;;5021141;28;20018;-73
2021/07/13 06:22:00;;;;;;;13.57;9.32;;;21.50;99.90;;;;;;5017929;28;20041;-74
2021/07/13 06:24:26;;;;;;;13.65;9.15;;;21.50;99.90;;;;;;5017555;28;20030;-73
2021/07/13 06:26:52;;;;;;;14.38;8.55;;;21.60;99.90;;;;;;5016174;28;20033;-73
2021/07/13 06:29:18;;;;;;;12.27;8.07;;;21.70;99.90;;;;;;5020675;28;20465;-72
2021/07/13 06:31:43;;;;;;;14.27;8.02;;;21.70;99.90;;;;;;5018373;28;20033;-73
2021/07/13 06:34:11;;;;;;;12.20;7.47;;;21.80;99.90;;;;;;5019353;28;20030;-71
2021/07/13 06:36:36;;;;;;;15.07;8.13;;;21.80;99.90;;;;;;5018707;28;20018;-71
2021/07/13 06:39:02;;;;;;;14.52;7.22;;;21.80;99.90;;;;;;5019965;28;20029;-72
2021/07/13 06:41:28;;;;;;;14.15;8.48;;;21.80;99.90;;;;;;5020040;28;20030;-72
2021/07/13 06:43:53;;;;;;;12.80;8.75;;;21.90;99.90;;;;;;5019815;28;20421;-73
2021/07/13 06:46:19;;;;;;;14.68;7.80;;;22.00;99.90;;;;;;5019621;28;20026;-71
2021/07/13 06:48:44;;;;;;;12.05;7.13;;;22.00;99.90;;;;;;5018035;28;20044;-72
2021/07/13 06:51:10;;;;;;;14.50;8.38;;;22.10;99.90;;;;;;5018412;28;20027;-72
2021/07/13 06:53:36;;;;;;;14.30;8.07;;;22.10;99.90;;;;;;5017099;28;20053;-71
2021/07/13 06:56:01;;;;;;;12.57;7.45;;;22.20;99.90;;;;;;5020323;28;20018;-72
2021/07/13 06:58:27;;;;;;;13.07;8.00;;;22.30;99.90;;;;;;5018237;28;20107;-73
2021/07/13 07:00:52;;;;;;;13.95;7.28;;;22.30;99.90;;;;;;5022554;28;20033;-73
2021/07/13 07:03:18;;;;;;;11.70;7.45;;;22.40;99.90;;;;;;5015885;28;20113;-74
2021/07/13 07:05:43;;;;;;;17.63;8.07;;;22.40;99.90;;;;;;5018901;28;20026;-71
2021/07/13 07:08:09;;;;;;;11.10;7.15;;;22.50;99.90;;;;;;5020203;28;20045;-72
2021/07/13 07:10:35;;;;;;;9.80;6.68;;;22.50;99.90;;;;;;5020173;28;20022;-75
2021/07/13 07:13:01;;;;;;;10.65;6.78;;;22.60;99.90;;;;;;5017811;28;20074;-73
2021/07/13 07:15:28;;;;;;;17.48;7.82;;;22.70;99.90;;;;;;5015903;28;20495;-73
2021/07/13 07:18:00;;;;;;;15.02;7.28;;;22.70;99.90;;;;;;5015673;28;20033;-77
2021/07/13 07:20:29;;;;;;;10.93;7.15;;;22.80;99.90;;;;;;5018510;28;20041;-77
2021/07/13 07:22:57;;;;;;;12.35;6.60;;;22.80;99.90;;;;;;5019091;28;20026;-74
2021/07/13 07:25:23;;;;;;;11.15;7.20;;;22.90;99.90;;;;;;5018708;28;20026;-75
2021/07/13 07:27:51;;;;;;;11.55;7.18;;;23.00;99.90;;;;;;5019966;28;20026;-74
2021/07/13 07:30:18;;;;;;;12.82;6.55;;;23.00;99.90;;;;;;5019594;28;20026;-75
2021/07/13 07:32:45;;;;;;;11.73;7.05;;;23.00;99.90;;;;;;5012854;28;20458;-73
2021/07/13 07:35:11;;;;;;;9.23;6.20;;;23.10;99.90;;;;;;5019658;28;20024;-75
2021/07/13 07:37:37;;;;;;;11.73;6.05;;;23.10;99.90;;;;;;5018435;28;20036;-73
2021/07/13 07:40:07;;;;;;;11.43;6.43;;;23.10;99.90;;;;;;5014475;28;20026;-74
2021/07/13 07:42:33;;;;;;;20.05;5.82;;;23.20;99.90;;;;;;5018366;28;20014;-72
2021/07/13 07:44:59;;;;;;;25.48;6.25;;;23.30;99.90;;;;;;5019056;28;20022;-73
2021/07/13 07:47:26;;;;;;;12.07;5.55;;;23.30;99.90;;;;;;5018078;28;20027;-72
2021/07/13 07:49:52;;;;;;;13.10;6.32;;;23.40;99.90;;;;;;5016643;28;20030;-74
2021/07/13 07:52:17;;;;;;;25.10;6.55;;;23.40;99.90;;;;;;5016633;28;20062;-71
2021/07/13 07:54:43;;;;;;;10.98;5.85;;;23.50;99.90;;;;;;5016119;28;20770;-71
2021/07/13 07:57:09;;;;;;;20.70;5.57;;;23.60;99.90;;;;;;5017992;28;20106;-70
2021/07/13 07:59:34;;;;;;;10.38;6.30;;;23.60;99.90;;;;;;5020153;28;20493;-71
2021/07/13 08:02:14;;;;;;;9.52;5.47;;;23.70;99.90;;;;;;5019223;28;20033;-70
2021/07/13 08:04:40;;;;;;;10.65;5.80;;;23.80;99.90;;;;;;5017279;28;20011;-72
2021/07/13 08:07:06;;;;;;;8.15;5.60;;;23.90;99.90;;;;;;5021285;28;20098;-70
2021/07/13 08:09:36;;;;;;;11.00;5.68;;;23.90;99.90;;;;;;5014348;28;20033;-71
2021/07/13 08:12:02;;;;;;;12.23;6.03;;;24.00;99.90;;;;;;5015263;28;20058;-71
2021/07/13 08:14:29;;;;;;;9.85;5.55;;;24.10;99.90;;;;;;5013300;28;20037;-72
2021/07/13 08:16:56;;;;;;;12.77;6.00;;;24.10;99.90;;;;;;5013197;28;20026;-72
2021/07/13 08:19:22;;;;;;;11.07;5.97;;;24.10;99.90;;;;;;5014045;28;20018;-70
2021/07/13 08:21:48;;;;;;;8.38;5.57;;;24.20;99.90;;;;;;5017799;28;20026;-69
2021/07/13 08:24:16;;;;;;;11.07;5.40;;;24.20;99.90;;;;;;5025413;28;20076;-72
2021/07/13 08:26:42;;;;;;;8.20;4.60;;;24.30;99.90;;;;;;5018418;28;20100;-69
2021/07/13 08:29:08;;;;;;;12.60;5.35;;;24.30;99.90;;;;;;5016628;28;20046;-70
2021/07/13 08:31:34;;;;;;;10.32;5.55;;;24.40;99.90;;;;;;5013639;28;20026;-70
2021/07/13 08:33:59;;;;;;;8.85;5.18;;;24.50;99.90;;;;;;5005366;28;20100;-69
2021/07/13 08:36:25;;;;;;;6.40;4.38;;;24.60;99.90;;;;;;5005083;28;20109;-70
2021/07/13 08:38:51;;;;;;;8.85;4.97;;;24.70;99.90;;;;;;5005269;28;20034;-70
2021/07/13 08:41:20;;;;;;;10.85;4.85;;;24.90;99.90;;;;;;5003713;28;20038;-68
2021/07/13 08:43:47;;;;;;;8.43;5.68;;;25.00;99.90;;;;;;5020362;28;20415;-69
2021/07/13 08:46:15;;;;;;;7.78;5.50;;;25.20;99.90;;;;;;5004492;28;20026;-69
2021/07/13 08:48:41;;;;;;;8.13;5.10;;;25.50;99.90;;;;;;5003808;28;20034;-70
2021/07/13 08:51:13;;;;;;;10.05;5.75;;;25.70;99.90;;;;;;5006243;28;20026;-71
2021/07/13 08:53:38;;;;;;;8.90;5.68;;;25.80;99.90;;;;;;5021592;28;20042;-68
2021/07/13 08:56:04;;;;;;;6.72;4.93;;;26.00;99.90;;;;;;5005779;28;20038;-70
2021/07/13 08:58:30;;;;;;;6.82;4.40;;;26.10;99.90;;;;;;5004490;28;20078;-69
2021/07/13 09:00:56;;;;;;;11.30;4.60;;;26.10;99.90;;;;;;5004133;28;20030;-70
2021/07/13 09:03:22;;;;;;;8.00;4.35;;;26.10;99.90;;;;;;5009468;28;20520;-69
2021/07/13 09:05:53;;;;;;;6.32;4.10;;;26.10;99.90;;;;;;5012772;28;20034;-69
2021/07/13 09:08:37;;;;;;;9.25;4.03;;;26.20;99.90;;;;;;5004200;28;20045;-69
2021/07/13 09:11:13;;;;;;;13.05;3.97;;;26.20;99.90;;;;;;5004680;28;20026;-67
2021/07/13 09:13:47;;;;;;;4.53;3.15;;;26.20;99.90;;;;;;5003496;28;20078;-68
2021/07/13 09:16:24;;;;;;;8.10;3.42;;;26.20;99.90;;;;;;5004930;28;20027;-68
2021/07/13 09:18:54;;;;;;;6.18;3.67;;;26.30;99.90;;;;;;5004747;28;20062;-69
2021/07/13 09:21:25;;;;;;;5.53;3.90;;;26.40;99.90;;;;;;5004893;28;20030;-69
2021/07/13 09:24:09;;;;;;;8.13;3.55;;;26.50;99.90;;;;;;5003553;28;20508;-70
2021/07/13 09:26:58;;;;;;;5.20;3.67;;;26.50;99.90;;;;;;5004369;28;20034;-67
2021/07/13 09:29:34;;;;;;;7.57;4.13;;;26.50;99.90;;;;;;5004192;28;20026;-69
2021/07/13 09:32:24;;;;;;;5.13;3.40;;;26.60;99.90;;;;;;5004432;28;20034;-69
2021/07/13 09:34:51;;;;;;;6.63;4.00;;;26.70;99.90;;;;;;5004387;28;20044;-69
2021/07/13 09:37:47;;;;;;;5.03;2.97;;;26.90;99.90;;;;;;5004451;28;20034;-68
2021/07/13 09:40:16;;;;;;;6.72;3.60;;;27.10;99.90;;;;;;5000767;28;20050;-69
2021/07/13 09:42:48;;;;;;;4.75;3.13;;;27.20;99.90;;;;;;5003819;28;20065;-68
2021/07/13 09:45:22;;;;;;;5.15;3.33;;;27.20;99.90;;;;;;5004270;28;20085;-68
2021/07/13 09:47:50;;;;;;;6.72;4.03;;;27.10;99.90;;;;;;5004995;28;20082;-69
2021/07/13 09:50:34;;;;;;;6.97;4.15;;;27.20;99.90;;;;;;5004434;28;20062;-69
2021/07/13 09:53:04;;;;;;;8.10;3.63;;;27.20;99.90;;;;;;5003985;28;20042;-68
2021/07/13 09:55:31;;;;;;;7.30;3.72;;;27.10;99.90;;;;;;5004834;28;20038;-70
2021/07/13 09:58:13;;;;;;;5.00;3.35;;;26.90;99.90;;;;;;5006318;28;20058;-70
2021/07/13 10:00:40;;;;;;;7.32;3.60;;;26.80;99.90;;;;;;5015689;28;20032;-69
2021/07/13 10:03:10;;;;;;;6.35;3.53;;;26.70;99.90;;;;;;5024170;28;20061;-68
2021/07/13 10:05:37;;;;;;;6.03;3.80;;;26.70;99.90;;;;;;5024031;28;20026;-68
2021/07/13 10:08:03;;;;;;;11.65;4.10;;;26.60;99.90;;;;;;5022740;28;20037;-69
2021/07/13 10:10:29;;;;;;;7.40;3.60;;;26.50;99.90;;;;;;5023422;28;20026;-69
2021/07/13 10:12:56;;;;;;;6.65;4.07;;;26.40;99.90;;;;;;5024794;28;20058;-69
2021/07/13 10:15:22;;;;;;;4.30;3.03;;;26.30;99.90;;;;;;5027907;28;20113;-69
2021/07/13 10:17:50;;;;;;;8.57;3.58;;;26.20;99.90;;;;;;5026904;28;20038;-70
2021/07/13 10:20:19;;;;;;;6.07;3.40;;;26.20;99.90;;;;;;5027196;28;20025;-69
2021/07/13 10:22:46;;;;;;;5.47;3.78;;;26.10;99.90;;;;;;5026894;28;20030;-68
2021/07/13 10:25:12;;;;;;;6.07;3.47;;;26.00;99.90;;;;;;5026753;28;20053;-69
2021/07/13 10:27:40;;;;;;;4.10;2.92;;;26.00;99.90;;;;;;5027331;28;20037;-68
2021/07/13 10:30:10;;;;;;;5.85;3.47;;;25.90;99.90;;;;;;5027125;28;20026;-69
2021/07/13 10:32:38;;;;;;;4.53;3.17;;;25.80;99.90;;;;;;5025980;28;20034;-69
2021/07/13 10:35:24;;;;;;;9.93;3.53;;;25.80;99.90;;;;;;5027606;28;20037;-69
2021/07/13 10:37:52;;;;;;;3.53;2.30;;;25.80;99.90;;;;;;5027018;28;20069;-68
2021/07/13 10:40:27;;;;;;;3.30;2.50;;;25.90;99.90;;;;;;5026988;28;20021;-70
2021/07/13 10:43:15;;;;;;;10.02;3.20;;;26.00;99.90;;;;;;5026888;28;20502;-70
2021/07/13 10:45:42;;;;;;;4.53;2.95;;;26.00;99.90;;;;;;5027159;28;20480;-68
2021/07/13 10:48:20;;;;;;;7.82;3.25;;;26.10;99.90;;;;;;5027034;28;20026;-69
2021/07/13 10:50:51;;;;;;;4.18;2.88;;;26.20;99.90;;;;;;5026682;28;20022;-69
2021/07/13 10:53:29;;;;;;;3.92;2.40;;;26.40;99.90;;;;;;5026778;28;20073;-68
2021/07/13 10:55:56;;;;;;;4.25;2.92;;;26.40;99.90;;;;;;5026869;28;20057;-71
2021/07/13 10:58:30;;;;;;;5.72;3.33;;;26.50;99.90;;;;;;5026954;28;20113;-71
2021/07/13 11:01:00;;;;;;;4.72;2.58;;;26.60;99.90;;;;;;5026520;28;20496;-69
2021/07/13 11:03:32;;;;;;;5.00;3.35;;;26.70;99.90;;;;;;5026841;28;20034;-69
2021/07/13 11:06:05;;;;;;;5.75;3.13;;;26.70;99.90;;;;;;5026400;28;20476;-70
2021/07/13 11:11:28;;;;;;;6.15;3.00;;;26.80;99.90;;;;;;5026706;28;20057;-68
2021/07/13 11:14:05;;;;;;;4.68;2.65;;;26.90;99.90;;;;;;5025936;28;20050;-69
2021/07/13 11:16:31;;;;;;;10.23;3.13;;;26.90;99.90;;;;;;5026735;28;20034;-68
2021/07/13 11:18:58;;;;;;;4.15;2.88;;;27.00;99.90;;;;;;5026231;28;20150;-70
2021/07/13 11:21:37;;;;;;;3.92;2.70;;;27.00;99.90;;;;;;5026251;28;20045;-72
2021/07/13 11:24:03;;;;;;;3.95;2.38;;;27.10;99.90;;;;;;5026039;28;20018;-69
2021/07/13 11:26:30;;;;;;;5.00;2.90;;;27.10;99.90;;;;;;5026245;28;20026;-69
2021/07/13 11:28:58;;;;;;;3.50;2.58;;;27.10;99.90;;;;;;5026394;28;20022;-70
2021/07/13 11:31:33;;;;;;;5.55;3.05;;;27.20;99.90;;;;;;5026302;28;20033;-71
2021/07/13 11:34:10;;;;;;;6.68;3.17;;;27.20;99.90;;;;;;5025898;28;20038;-69
2021/07/13 11:36:41;;;;;;;4.20;2.95;;;27.10;99.90;;;;;;5025818;28;20488;-68
2021/07/13 11:39:09;;;;;;;5.25;3.30;;;27.10;99.90;;;;;;5026083;28;20060;-69
2021/07/13 11:41:36;;;;;;;5.30;3.25;;;27.00;99.90;;;;;;5025754;28;20454;-70
2021/07/13 11:44:05;;;;;;;4.75;3.08;;;27.00;99.90;;;;;;5025858;28;20041;-68
2021/07/13 11:46:36;;;;;;;5.93;3.30;;;26.90;99.90;;;;;;5025931;28;20033;-68
2021/07/13 11:49:01;;;;;;;6.30;3.10;;;26.70;99.90;;;;;;5026197;28;20030;-69
2021/07/13 11:51:29;;;;;;;6.43;3.53;;;26.60;99.90;;;;;;5025703;28;20061;-69
2021/07/13 11:54:00;;;;;;;5.60;3.60;;;26.50;99.90;;;;;;5025976;28;20049;-69
2021/07/13 11:56:27;;;;;;;5.28;3.08;;;26.40;99.90;;;;;;5025432;28;20049;-70
2021/07/13 11:58:54;;;;;;;5.47;3.35;;;26.20;99.90;;;;;;5025934;28;20082;-69
2021/07/13 12:01:24;;;;;;;4.05;2.97;;;26.10;99.90;;;;;;5025199;28;20341;-69
2021/07/13 12:03:52;;;;;;;6.70;3.75;;;26.10;99.90;;;;;;5025606;28;20029;-69
2021/07/13 12:06:21;;;;;;;6.47;3.40;;;26.00;99.90;;;;;;5025545;28;20014;-69
2021/07/13 12:08:55;;;;;;;7.53;3.80;;;26.00;99.90;;;;;;5025521;28;20052;-69
2021/07/13 12:11:28;;;;;;;6.25;3.72;;;25.90;99.90;;;;;;5025513;28;20036;-70
2021/07/13 12:14:00;;;;;;;5.53;3.80;;;25.90;99.90;;;;;;5025451;28;20476;-69
2021/07/13 12:16:34;;;;;;;6.68;3.85;;;25.90;99.90;;;;;;5025242;28;20045;-69
2021/07/13 12:19:02;;;;;;;;;;;25.90;99.90;;;;;;5024937;28;20529;-68
2021/07/13 12:21:29;;;;;;;8.80;4.13;;;26.00;99.90;;;;;;5024874;28;19928;-69
2021/07/13 12:23:59;;;;;;;6.43;3.83;;;26.10;99.90;;;;;;5025089;28;20026;-71
2021/07/13 12:26:26;;;;;;;5.88;4.07;;;26.20;99.90;;;;;;5025170;28;20028;-69
2021/07/13 12:29:09;;;;;;;7.82;4.03;;;26.20;99.90;;;;;;5025478;28;20078;-69
2021/07/13 12:31:38;;;;;;;8.95;4.30;;;26.20;99.90;;;;;;5023419;28;20025;-71
2021/07/13 12:34:13;;;;;;;9.25;3.55;;;26.20;99.90;;;;;;5023493;28;20048;-69
2021/07/13 12:36:39;;;;;;;5.82;3.92;;;26.30;99.90;;;;;;5022560;28;20025;-70
2021/07/13 12:39:12;;;;;;;8.25;4.78;;;26.30;99.90;;;;;;5023341;28;20053;-69
2021/07/13 12:41:38;;;;;;;5.28;3.88;;;26.30;99.90;;;;;;5023137;28;20049;-69
2021/07/13 12:44:32;;;;;;;7.05;4.57;;;26.30;99.90;;;;;;5022920;28;20030;-70
2021/07/13 12:47:35;;;;;;;6.05;4.13;;;26.30;99.90;;;;;;5023265;28;20077;-69
2021/07/13 12:50:12;;;;;;;7.60;4.35;;;26.20;99.90;;;;;;5023423;28;20026;-69
2021/07/13 12:52:55;;;;;;;7.18;4.57;;;26.20;99.90;;;;;;5022530;28;20118;-70